• Join FlightAware (Why Join?)
  • Login
  • US Flag 
05:45PM EDT


 

Airport Tracker/Info


-or-


 

Live Flight TrackerFlight Track Log ✈ UAL5829 ✈ 20-Apr-2013 ✈ KORD - CYWG

Flight Track Log - Related Links

Times and Time Zones

All times are in EDT time to prevent confusion due to time zone crossing. See the UAL5829 flight status page for this flight to view local times or setup timezone preferences in your user account.

Time Position Orientation Groundspeed Altitude Reporting Facility
EDT Latitude Longitude Course Direction KTS MPH feet Rate Location/Type
08:48PM 41.9833 -87.8833 48° Northeast 154 177 1,700  Level Chicago TRACON
08:49PM 42.0167 -87.8333 48° Northeast 199 229 3,700 2,100 Climbing Chicago TRACON
08:51PM 42.1686 -87.7642 19° North 257 296 9,000 2,040 Climbing Chicago Center
08:52PM 42.2411 -87.7617 North 261 300 10,800 1,380 Climbing Chicago Center
08:53PM 42.3161 -87.8019 338° Northwest 294 338 11,900 1,020 Climbing Chicago Center
08:54PM 42.3972 -87.8500 336° Northwest 313 360 12,900 1,200 Climbing Chicago Center
08:55PM 42.4808 -87.9008 336° Northwest 324 373 14,400 1,440 Climbing Chicago Center
08:56PM 42.5636 -87.9500 357° North 325 374 15,900 1,440 Climbing Chicago Center
08:57PM 42.6394 -88.0114 329° Northwest 319 367 17,400 1,080 Climbing Chicago Center
08:58PM 42.7150 -88.0761 328° Northwest 320 368 18,100 780 Climbing Chicago Center
08:59PM 42.7928 -88.1417 328° Northwest 328 377 19,100 1,020 Climbing Chicago Center
09:00PM 42.8864 -88.2214 328° Northwest 338 389 20,300 1,080 Climbing Chicago Center
09:01PM 42.9683 -88.2936 327° Northwest 347 399 21,300 960 Climbing Chicago Center
09:02PM 43.0519 -88.3653 328° Northwest 352 405 22,300 960 Climbing Chicago Center
09:04PM 43.1361 -88.4378 328° Northwest 355 409 23,300 960 Climbing Chicago Center
09:05PM 43.2208 -88.5103 328° Northwest 354 407 24,300 1,020 Climbing Chicago Center
09:06PM 43.3058 -88.5842 328° Northwest 357 411 25,400 1,260 Climbing Chicago Center
09:07PM 43.3883 -88.6564 328° Northwest 347 399 26,900 1,260 Climbing Chicago Center
09:08PM 43.4672 -88.7250 328° Northwest 333 383 28,100 1,080 Climbing Chicago Center
09:09PM 43.5456 -88.7950 327° Northwest 331 381 29,200 1,080 Climbing Chicago Center
09:10PM 43.6236 -88.8636 328° Northwest 330 380 30,400 1,080 Climbing Chicago Center
09:10PM 43.6872 -88.9194 328° Northwest 328 377 31,300 960 Climbing Minneapolis Center
09:11PM 43.7661 -88.9894 327° Northwest 333 383 32,200 900 Climbing Minneapolis Center
09:12PM 43.8461 -89.0606 327° Northwest 340 391 33,200 960 Climbing Minneapolis Center
09:14PM 43.9258 -89.1336 327° Northwest 342 394 34,200 900 Climbing Minneapolis Center
09:15PM 44.0064 -89.2061 327° Northwest 345 397 35,100 840 Climbing Minneapolis Center
09:16PM 44.0992 -89.2881 328° Northwest 340 391 36,000 420 Climbing Minneapolis Center
09:17PM 44.1822 -89.3628 327° Northwest 352 405 36,000  Level Minneapolis Center
09:18PM 44.2703 -89.4425 327° Northwest 372 428 36,000  Level Minneapolis Center
09:19PM 44.3578 -89.5344 323° Northwest 390 449 36,000  Level Minneapolis Center
09:20PM 44.4483 -89.6272 324° Northwest 401 461 36,000  Level Minneapolis Center
09:21PM 44.5403 -89.7242 323° Northwest 411 473 36,000  Level Minneapolis Center
09:22PM 44.6283 -89.8150 324° Northwest 399 459 36,000  Level Minneapolis Center
09:23PM 44.7158 -89.9072 323° Northwest 392 451 36,000  Level Minneapolis Center
09:24PM 44.8028 -89.9992 323° Northwest 393 452 36,000  Level Minneapolis Center
09:25PM 44.8919 -90.0917 324° Northwest 391 450 36,000  Level Minneapolis Center
09:26PM 44.9617 -90.1658 323° Northwest 392 451 36,000  Level Minneapolis Center
09:27PM 45.0664 -90.2769 323° Northwest 392 451 36,000  Level Minneapolis Center
09:28PM 45.1539 -90.3694 323° Northwest 392 451 36,000  Level Minneapolis Center
09:29PM 45.2578 -90.4819 323° Northwest 392 451 36,000  Level Minneapolis Center
09:30PM 45.3458 -90.5764 323° Northwest 394 453 36,000  Level Minneapolis Center
09:31PM 45.4325 -90.6700 323° Northwest 392 451 36,000  Level Minneapolis Center
09:32PM 45.5194 -90.7653 322° Northwest 393 452 36,000  Level Minneapolis Center
09:33PM 45.5889 -90.8392 323° Northwest 390 449 36,000  Level Minneapolis Center
09:34PM 45.6936 -90.9547 322° Northwest 393 452 36,000  Level Minneapolis Center
09:35PM 45.7803 -91.0503 322° Northwest 392 451 36,000  Level Minneapolis Center
09:36PM 45.8667 -91.1450 323° Northwest 390 449 36,000  Level Minneapolis Center
09:37PM 45.9536 -91.2400 323° Northwest 392 451 36,000  Level Minneapolis Center
09:38PM 46.0386 -91.3361 322° Northwest 389 448 36,000  Level Minneapolis Center
09:39PM 46.1425 -91.4522 322° Northwest 393 452 36,000  Level Minneapolis Center
09:40PM 46.2294 -91.5486 323° Northwest 394 453 36,000  Level Minneapolis Center
09:41PM 46.3172 -91.6478 322° Northwest 394 453 36,000  Level Minneapolis Center
09:42PM 46.4033 -91.7447 322° Northwest 392 451 36,000  Level Minneapolis Center
09:43PM 46.4894 -91.8447 321° Northwest 396 456 36,000  Level Minneapolis Center
09:44PM 46.5761 -91.9425 322° Northwest 397 457 36,000  Level Minneapolis Center
09:45PM 46.6611 -92.0422 321° Northwest 396 456 36,000  Level Minneapolis Center
09:46PM 46.7478 -92.1419 322° Northwest 396 456 36,000  Level Minneapolis Center
09:47PM 46.8336 -92.2425 321° Northwest 396 456 36,000  Level Minneapolis Center
09:48PM 46.9172 -92.3467 320° Northwest 397 457 36,000  Level Minneapolis Center
09:49PM 47.0183 -92.4722 320° Northwest 398 458 36,000  Level Minneapolis Center
09:50PM 47.1025 -92.5756 320° Northwest 397 457 36,000  Level Minneapolis Center
09:51PM 47.1867 -92.6800 320° Northwest 397 457 36,000  Level Minneapolis Center
09:52PM 47.2700 -92.7828 320° Northwest 395 455 36,000  Level Minneapolis Center
09:53PM 47.3539 -92.8869 320° Northwest 397 457 36,000  Level Minneapolis Center
09:54PM 47.4367 -92.9942 319° Northwest 401 461 36,000  Level Minneapolis Center
09:55PM 47.5172 -93.0972 319° Northwest 397 457 36,000  Level Minneapolis Center
09:56PM 47.5997 -93.2006 320° Northwest 395 455 36,000  Level Minneapolis Center
09:57PM 47.6997 -93.3278 319° Northwest 398 458 36,000  Level Minneapolis Center
09:58PM 47.7828 -93.4347 319° Northwest 397 457 36,000  Level Minneapolis Center
09:59PM 47.8678 -93.5456 319° Northwest 404 465 36,000  Level Minneapolis Center
10:00PM 47.9514 -93.6547 319° Northwest 404 465 36,000  Level Minneapolis Center
10:01PM 48.0347 -93.7631 319° Northwest 400 460 36,000  Level Minneapolis Center
10:02PM 48.1172 -93.8719 319° Northwest 397 457 36,000  Level Minneapolis Center
10:03PM 48.1839 -93.9586 319° Northwest 398 458 36,000  Level Minneapolis Center
10:04PM 48.2839 -94.0914 319° Northwest 399 459 36,000  Level Minneapolis Center
10:06PM 48.3664 -94.2014 318° Northwest 400 460 36,000  Level Minneapolis Center
10:07PM 48.4497 -94.3117 319° Northwest 400 460 36,000  Level Minneapolis Center
10:08PM 48.5331 -94.4236 318° Northwest 401 461 36,000  Level Minneapolis Center
10:09PM 48.6161 -94.5342 319° Northwest 400 460 36,000  Level Minneapolis Center
10:10PM 48.6986 -94.6469 318° Northwest 401 461 36,000  Level Minneapolis Center
10:11PM 48.7814 -94.7592 318° Northwest 401 461 36,000  Level Minneapolis Center
10:12PM 48.8639 -94.8736 318° Northwest 401 461 36,000  Level Minneapolis Center
10:12PM 48.8833 -94.9000 318° Northwest 400 460 36,000 -180 Level Winnipeg Center
10:13PM 48.9833 -95.0333 319° Northwest 400 460 35,800 -600 Descending Winnipeg Center
10:14PM 49.0500 -95.1333 316° Northwest 390 449 34,800 -1,200 Descending Winnipeg Center
10:15PM 49.1167 -95.2500 311° West 380 437 33,400 -1,500 Descending Winnipeg Center
10:16PM 49.1833 -95.3833 307° West 370 426 31,800 -1,500 Descending Winnipeg Center
10:17PM 49.2500 -95.5000 311° West 370 426 30,400 -1,500 Descending Winnipeg Center
10:18PM 49.3000 -95.6333 300° West 360 414 28,800 -1,560 Descending Winnipeg Center
10:19PM 49.3667 -95.7667 308° West 360 414 27,300 -2,040 Descending Winnipeg Center
10:20PM 49.4167 -95.8833 303° West 370 426 24,800 -2,220 Descending Winnipeg Center
10:21PM 49.4833 -96.0167 308° West 390 449 22,900 -2,100 Descending Winnipeg Center
10:22PM 49.5500 -96.1333 311° West 400 460 20,700 -2,280 Descending Winnipeg Center
10:23PM 49.6167 -96.3000 302° West 380 437 18,400 -2,220 Descending Winnipeg Center
10:24PM 49.6833 -96.4000 316° Northwest 350 403 16,300 -2,400 Descending Winnipeg Center
10:25PM 49.7333 -96.5333 300° West 330 380 13,700 -2,400 Descending Winnipeg Center
10:26PM 49.7833 -96.6333 308° West 320 368 11,500 -1,920 Descending Winnipeg Center
10:27PM 49.8333 -96.7333 308° West 280 322 9,900 -1,560 Descending Winnipeg Center
10:28PM 49.8667 -96.8333 297° West 260 299 8,400 -1,500 Descending Winnipeg Center
10:29PM 49.9167 -96.9167 313° West 240 276 6,900 -1,500 Descending Winnipeg Center
10:30PM 49.9500 -97.0000 302° West 230 265 5,400 -1,500 Descending Winnipeg Center
10:31PM 50.0000 -97.0667 319° Northwest 220 253 4,000 -960 Descending Winnipeg Center
10:32PM 50.0333 -97.1500 302° West 190 219 3,500 -660 Descending Winnipeg Center
10:33PM 50.0167 -97.2000 243° Southwest 160 184 2,700 -780 Descending Winnipeg Center
10:34PM 49.9667 -97.2000 180° South 120 138 2,000 -660 Descending Winnipeg Center
10:35PM 49.9500 -97.2333 232° Southwest 120 138 1,400 -660 Descending Winnipeg Center
10:36PM 49.9167 -97.2333 180° South 120 138 800 -600 Descending Winnipeg Center